createdAt,value
2018-08-18T00:00:49.351Z,12.70
2018-08-18T00:01:49.361Z,12.77
2018-08-18T00:02:49.325Z,12.70
2018-08-18T00:03:49.321Z,12.71
2018-08-18T00:04:49.309Z,12.79
2018-08-18T00:05:49.288Z,12.69
2018-08-18T00:06:49.304Z,12.75
2018-08-18T00:07:49.270Z,12.71
2018-08-18T00:08:49.255Z,12.67
2018-08-18T00:09:49.253Z,12.70
2018-08-18T00:10:49.236Z,12.74
2018-08-18T00:11:49.252Z,12.63
2018-08-18T00:12:49.210Z,12.66
2018-08-18T00:13:49.199Z,12.75
2018-08-18T00:14:49.191Z,12.64
2018-08-18T00:15:49.175Z,12.62
2018-08-18T00:16:49.162Z,12.56
2018-08-18T00:17:49.178Z,12.70
2018-08-18T00:18:49.161Z,12.64
2018-08-18T00:19:49.131Z,12.63
2018-08-18T00:20:49.122Z,12.60
2018-08-18T00:21:49.105Z,12.63
2018-08-18T00:22:49.120Z,12.62
2018-08-18T00:23:49.082Z,12.62
2018-08-18T00:24:49.077Z,12.59
2018-08-18T00:25:49.059Z,12.59
2018-08-18T00:26:49.052Z,12.60
2018-08-18T00:27:49.063Z,12.49
2018-08-18T00:28:49.029Z,12.52
2018-08-18T00:29:49.009Z,12.52
2018-08-18T00:30:49.007Z,12.56
2018-08-18T00:31:48.985Z,12.64
2018-08-18T00:32:49.012Z,12.59
2018-08-18T00:33:48.965Z,12.67
2018-08-18T00:34:48.958Z,12.54
2018-08-18T00:35:48.940Z,12.57
2018-08-18T00:36:48.936Z,12.59
2018-08-18T00:37:48.916Z,12.51
2018-08-18T00:38:48.935Z,12.59
2018-08-18T00:39:48.899Z,12.66
2018-08-18T00:40:48.884Z,12.54
2018-08-18T00:41:48.871Z,12.59
2018-08-18T00:42:48.866Z,12.46
2018-08-18T00:43:48.878Z,12.52
2018-08-18T00:44:48.837Z,12.39
2018-08-18T00:45:48.824Z,12.44
2018-08-18T00:46:48.814Z,12.46
2018-08-18T00:47:48.801Z,12.42
2018-08-18T00:48:48.827Z,12.38
2018-08-18T00:49:48.773Z,12.33
2018-08-18T00:50:48.770Z,12.34
2018-08-18T00:51:48.751Z,12.33
2018-08-18T00:52:48.743Z,12.23
2018-08-18T00:53:48.731Z,12.31
2018-08-18T00:54:48.740Z,12.27
2018-08-18T00:55:48.710Z,12.23
2018-08-18T00:56:48.697Z,12.30
2018-08-18T00:57:48.686Z,12.27
2018-08-18T00:58:48.679Z,12.21
2018-08-18T00:59:48.681Z,12.19
2018-08-18T01:00:48.654Z,12.12
2018-08-18T01:01:48.683Z,12.09
2018-08-18T01:02:48.623Z,12.05
2018-08-18T01:03:48.615Z,12.11
2018-08-18T01:04:48.629Z,12.12
2018-08-18T01:05:48.595Z,12.09
2018-08-18T01:06:48.622Z,12.05
2018-08-18T01:07:48.567Z,11.87
2018-08-18T01:08:48.560Z,11.93
2018-08-18T01:09:48.539Z,11.99
2018-08-18T01:10:48.619Z,11.97
2018-08-18T01:11:48.651Z,11.96
2018-08-18T01:12:48.530Z,11.97
2018-08-18T01:13:48.658Z,11.89
2018-08-18T01:14:48.582Z,11.89
2018-08-18T01:15:48.519Z,11.89
2018-08-18T01:16:48.463Z,11.78
2018-08-18T01:17:48.448Z,11.85
2018-08-18T01:18:48.435Z,11.75
2018-08-18T01:19:48.433Z,11.77
2018-08-18T01:20:48.436Z,11.85
2018-08-18T01:21:48.403Z,11.74
2018-08-18T01:22:48.395Z,11.71
2018-08-18T01:23:48.376Z,11.67
2018-08-18T01:24:48.371Z,11.75
2018-08-18T01:25:48.381Z,11.70
2018-08-18T01:26:48.348Z,11.71
2018-08-18T01:27:48.333Z,11.80
2018-08-18T01:28:54.828Z,11.71
2018-08-18T01:29:48.309Z,11.74
2018-08-18T01:30:48.332Z,11.77
2018-08-18T01:31:48.278Z,11.75
2018-08-18T01:32:48.276Z,11.78
2018-08-18T01:33:48.256Z,11.78
2018-08-18T01:34:48.254Z,11.71
2018-08-18T01:35:48.233Z,11.75
2018-08-18T01:36:48.251Z,11.71
2018-08-18T01:37:48.212Z,11.74
2018-08-18T01:38:48.197Z,11.77
2018-08-18T01:39:48.194Z,11.77
2018-08-18T01:40:48.177Z,11.68
2018-08-18T01:41:48.190Z,11.67
2018-08-18T01:42:48.153Z,11.72
2018-08-18T01:43:48.199Z,11.72
2018-08-18T01:44:48.127Z,11.72
2018-08-18T01:45:48.122Z,11.77
2018-08-18T01:46:48.132Z,11.83
2018-08-18T01:47:48.102Z,11.85
2018-08-18T01:48:48.078Z,11.80
2018-08-18T01:49:48.077Z,11.77
2018-08-18T01:50:48.061Z,11.65
2018-08-18T01:51:48.082Z,11.82
2018-08-18T01:52:48.034Z,11.75
2018-08-18T01:53:48.026Z,11.75
2018-08-18T01:54:48.017Z,11.80
2018-08-18T01:55:47.995Z,11.75
2018-08-18T01:56:47.983Z,11.85
2018-08-18T01:57:48.003Z,11.82
2018-08-18T01:58:47.961Z,11.75
2018-08-18T01:59:47.958Z,11.83
2018-08-18T02:00:47.939Z,11.78
2018-08-18T02:01:47.930Z,11.80
2018-08-18T02:02:47.940Z,11.87
2018-08-18T02:03:47.907Z,11.80
2018-08-18T02:04:47.900Z,11.78
2018-08-18T02:05:47.878Z,11.75
2018-08-18T02:06:47.876Z,11.80
2018-08-18T02:07:47.886Z,11.78
2018-08-18T02:08:47.850Z,11.71
2018-08-18T02:09:47.836Z,11.80
2018-08-18T02:10:47.826Z,11.82
2018-08-18T02:11:47.812Z,11.75
2018-08-18T02:12:47.804Z,11.68
2018-08-18T02:13:47.809Z,11.71
2018-08-18T02:14:47.774Z,11.75
2018-08-18T02:15:47.768Z,11.82
2018-08-18T02:16:47.754Z,11.80
2018-08-18T02:17:47.771Z,11.72
2018-08-18T02:18:47.724Z,11.72
2018-08-18T02:19:47.724Z,11.77
2018-08-18T02:20:47.702Z,11.74
2018-08-18T02:21:47.699Z,11.67
2018-08-18T02:22:47.680Z,11.57
2018-08-18T02:23:47.697Z,11.70
2018-08-18T02:24:47.660Z,11.67
2018-08-18T02:25:47.649Z,11.62
2018-08-18T02:26:47.633Z,11.65
2018-08-18T02:27:47.625Z,11.64
2018-08-18T02:28:47.631Z,11.67
2018-08-18T02:29:47.605Z,11.64
2018-08-18T02:30:47.590Z,11.67
2018-08-18T02:31:47.575Z,11.72
2018-08-18T02:32:47.564Z,11.67
2018-08-18T02:33:47.582Z,11.74
2018-08-18T02:34:47.545Z,11.78
2018-08-18T02:35:47.523Z,11.75
2018-08-18T02:36:47.516Z,11.75
2018-08-18T02:37:47.500Z,11.65
2018-08-18T02:38:47.517Z,11.65
2018-08-18T02:39:47.483Z,11.67
2018-08-18T02:40:47.465Z,11.74
2018-08-18T02:41:47.463Z,11.67
2018-08-18T02:42:47.446Z,11.65
2018-08-18T02:43:47.462Z,11.65
2018-08-18T02:44:47.422Z,11.64
2018-08-18T02:45:47.411Z,11.59
2018-08-18T02:46:47.399Z,11.67
2018-08-18T02:47:47.388Z,11.64
2018-08-18T02:48:47.379Z,11.68
2018-08-18T02:49:47.389Z,11.65
2018-08-18T02:50:47.347Z,11.65
2018-08-18T02:51:47.345Z,11.71
2018-08-18T02:52:47.323Z,11.65
2018-08-18T02:53:47.324Z,11.67
2018-08-18T02:54:47.328Z,11.65
2018-08-18T02:55:47.290Z,11.78
2018-08-18T02:56:47.278Z,11.65
2018-08-18T02:57:47.273Z,11.64
2018-08-18T02:58:47.254Z,11.67
2018-08-18T02:59:47.270Z,11.74
2018-08-18T03:00:47.229Z,11.70
2018-08-18T03:01:47.225Z,11.75
2018-08-18T03:02:47.204Z,11.83
2018-08-18T03:03:47.202Z,11.72
2018-08-18T03:04:47.218Z,11.68
2018-08-18T03:05:47.178Z,11.85
2018-08-18T03:06:47.170Z,11.72
2018-08-18T03:07:47.182Z,11.85
2018-08-18T03:08:47.136Z,11.71
2018-08-18T03:09:47.128Z,11.70
2018-08-18T03:10:47.137Z,11.74
2018-08-18T03:11:47.106Z,11.67
2018-08-18T03:12:47.087Z,11.80
2018-08-18T03:13:47.085Z,11.75
2018-08-18T03:14:47.064Z,11.64
2018-08-18T03:15:47.085Z,11.71
2018-08-18T03:16:47.048Z,11.64
2018-08-18T03:17:47.029Z,11.68
2018-08-18T03:18:47.017Z,11.67
2018-08-18T03:19:47.011Z,11.67
2018-08-18T03:20:47.035Z,11.56
2018-08-18T03:21:46.985Z,11.65
2018-08-18T03:22:46.975Z,11.59
2018-08-18T03:23:46.968Z,11.70
2018-08-18T03:24:46.953Z,11.52
2018-08-18T03:25:46.937Z,11.57
2018-08-18T03:26:46.947Z,11.52
2018-08-18T03:27:46.920Z,11.49
2018-08-18T03:28:46.910Z,11.52
2018-08-18T03:29:46.889Z,11.41
2018-08-18T03:30:46.879Z,11.47
2018-08-18T03:31:46.898Z,11.36
2018-08-18T03:32:46.858Z,11.41
2018-08-18T03:33:46.842Z,11.32
2018-08-18T03:34:46.828Z,11.39
2018-08-18T03:35:46.826Z,11.38
2018-08-18T03:36:46.831Z,11.29
2018-08-18T03:37:46.797Z,11.21
2018-08-18T03:38:46.793Z,11.27
2018-08-18T03:39:46.769Z,11.38
2018-08-18T03:40:46.762Z,11.36
2018-08-18T03:41:46.782Z,11.31
2018-08-18T03:42:46.735Z,11.38
2018-08-18T03:43:46.727Z,11.34
2018-08-18T03:44:46.717Z,11.36
2018-08-18T03:45:46.708Z,11.34
2018-08-18T03:46:46.691Z,11.39
2018-08-18T03:47:46.702Z,11.31
2018-08-18T03:48:46.665Z,11.28
2018-08-18T03:49:46.655Z,11.32
2018-08-18T03:50:46.643Z,11.31
2018-08-18T03:51:46.632Z,11.32
2018-08-18T03:52:46.642Z,11.32
2018-08-18T03:53:46.604Z,11.39
2018-08-18T03:54:46.594Z,11.36
2018-08-18T03:55:46.580Z,11.27
2018-08-18T03:56:46.571Z,11.28
2018-08-18T03:57:46.579Z,11.29
2018-08-18T03:58:46.544Z,11.35
2018-08-18T03:59:46.532Z,11.38
2018-08-18T04:00:46.521Z,11.25
2018-08-18T04:01:46.511Z,11.32
2018-08-18T04:02:46.526Z,11.31
2018-08-18T04:03:46.482Z,11.34
2018-08-18T04:04:46.470Z,11.20
2018-08-18T04:05:46.467Z,11.21
2018-08-18T04:06:46.457Z,11.21
2018-08-18T04:07:46.462Z,11.19
2018-08-18T04:08:46.426Z,11.31
2018-08-18T04:09:46.418Z,11.24
2018-08-18T04:10:46.409Z,11.27
2018-08-18T04:11:46.388Z,11.20
2018-08-18T04:12:46.411Z,11.25
2018-08-18T04:13:46.366Z,11.27
2018-08-18T04:14:46.356Z,11.24
2018-08-18T04:15:46.341Z,11.27
2018-08-18T04:16:46.334Z,11.17
2018-08-18T04:17:46.350Z,11.17
2018-08-18T04:18:46.310Z,11.11
2018-08-18T04:19:46.303Z,11.19
2018-08-18T04:20:46.289Z,11.24
2018-08-18T04:21:46.269Z,11.13
2018-08-18T04:22:46.288Z,11.19
2018-08-18T04:23:46.251Z,11.32
2018-08-18T04:24:46.239Z,11.31
2018-08-18T04:25:46.224Z,11.28
2018-08-18T04:26:46.210Z,11.27
2018-08-18T04:27:46.238Z,11.41
2018-08-18T04:28:46.193Z,11.35
2018-08-18T04:29:46.175Z,11.32
2018-08-18T04:30:46.169Z,11.34
2018-08-18T04:31:46.162Z,11.24
2018-08-18T04:32:46.146Z,11.29
2018-08-18T04:33:46.154Z,11.32
2018-08-18T04:34:46.123Z,11.39
2018-08-18T04:35:46.102Z,11.29
2018-08-18T04:36:46.097Z,11.36
2018-08-18T04:37:46.084Z,11.35
2018-08-18T04:38:46.091Z,11.36
2018-08-18T04:39:46.067Z,11.36
2018-08-18T04:40:46.045Z,11.34
2018-08-18T04:41:46.038Z,11.44
2018-08-18T04:42:46.027Z,11.36
2018-08-18T04:43:46.043Z,11.46
2018-08-18T04:44:46.004Z,11.36
2018-08-18T04:45:45.988Z,11.36
2018-08-18T04:46:45.982Z,11.34
2018-08-18T04:47:45.957Z,11.36
2018-08-18T04:48:45.952Z,11.41
2018-08-18T04:49:45.957Z,11.36
2018-08-18T04:50:45.929Z,11.39
2018-08-18T04:51:45.920Z,11.32
2018-08-18T04:52:45.901Z,11.32
2018-08-18T04:53:45.892Z,11.28
2018-08-18T04:54:45.901Z,11.39
2018-08-18T04:55:45.869Z,11.35
2018-08-18T04:56:45.887Z,11.32
2018-08-18T04:57:45.840Z,11.36
2018-08-18T04:58:45.834Z,11.36
2018-08-18T04:59:45.848Z,11.39
2018-08-18T05:00:45.802Z,11.41
2018-08-18T05:01:45.798Z,11.46
2018-08-18T05:02:45.785Z,11.34
2018-08-18T05:03:45.770Z,11.39
2018-08-18T05:04:45.765Z,11.44
2018-08-18T05:05:45.771Z,11.38
2018-08-18T05:06:45.739Z,11.49
2018-08-18T05:07:45.723Z,11.38
2018-08-18T05:08:45.711Z,11.52
2018-08-18T05:09:45.702Z,11.46
2018-08-18T05:10:45.710Z,11.38
2018-08-18T05:11:45.754Z,11.50
2018-08-18T05:12:45.660Z,11.39
2018-08-18T05:13:45.655Z,11.47
2018-08-18T05:14:45.643Z,11.43
2018-08-18T05:15:45.646Z,11.47
2018-08-18T05:16:45.612Z,11.35
2018-08-18T05:17:45.604Z,11.46
2018-08-18T05:18:45.635Z,11.44
2018-08-18T05:19:45.580Z,11.53
2018-08-18T05:20:45.584Z,11.44
2018-08-18T05:21:45.555Z,11.44
2018-08-18T05:22:45.547Z,11.50
2018-08-18T05:23:45.530Z,11.49
2018-08-18T05:24:45.525Z,11.46
2018-08-18T05:25:45.537Z,11.53
2018-08-18T05:26:45.497Z,11.57
2018-08-18T05:27:45.487Z,11.50
2018-08-18T05:28:45.475Z,11.54
2018-08-18T05:29:45.462Z,11.59
2018-08-18T05:30:45.452Z,11.57
2018-08-18T05:31:45.466Z,11.62
2018-08-18T05:32:45.430Z,11.61
2018-08-18T05:33:45.417Z,11.47
2018-08-18T05:34:45.407Z,11.61
2018-08-18T05:35:45.424Z,11.53
2018-08-18T05:36:45.385Z,11.64
2018-08-18T05:37:45.370Z,11.56
2018-08-18T05:38:45.357Z,11.57
2018-08-18T05:39:45.347Z,11.59
2018-08-18T05:40:45.333Z,11.61
2018-08-18T05:41:45.346Z,11.70
2018-08-18T05:42:45.311Z,11.62
2018-08-18T05:43:45.301Z,11.68
2018-08-18T05:44:45.283Z,11.68
2018-08-18T05:45:45.279Z,11.74
2018-08-18T05:46:45.286Z,11.61
2018-08-18T05:47:45.258Z,11.82
2018-08-18T05:48:45.239Z,11.67
2018-08-18T05:49:45.232Z,11.74
2018-08-18T05:50:45.214Z,11.78
2018-08-18T05:51:45.241Z,11.82
2018-08-18T05:52:45.192Z,11.85
2018-08-18T05:53:45.183Z,11.93
2018-08-18T05:54:45.169Z,11.82
2018-08-18T05:55:45.160Z,11.87
2018-08-18T05:56:45.149Z,11.94
2018-08-18T05:57:45.165Z,11.86
2018-08-18T05:58:45.128Z,11.90
2018-08-18T05:59:45.130Z,11.99
2018-08-18T06:00:45.105Z,12.05
2018-08-18T06:01:45.084Z,11.97
2018-08-18T06:02:45.105Z,12.09
2018-08-18T06:03:45.062Z,12.02
2018-08-18T06:04:45.058Z,12.13
2018-08-18T06:05:45.131Z,12.23
2018-08-18T06:06:45.035Z,12.12
2018-08-18T06:07:45.039Z,12.16
2018-08-18T06:08:45.011Z,12.24
2018-08-18T06:09:44.995Z,12.15
2018-08-18T06:10:44.992Z,12.23
2018-08-18T06:11:44.971Z,12.30
2018-08-18T06:12:44.991Z,12.27
2018-08-18T06:13:44.951Z,12.33
2018-08-18T06:14:44.943Z,12.37
2018-08-18T06:15:44.924Z,12.45
2018-08-18T06:16:44.916Z,12.42
2018-08-18T06:17:44.902Z,12.49
2018-08-18T06:18:44.908Z,12.52
2018-08-18T06:19:44.884Z,12.48
2018-08-18T06:20:44.870Z,12.54
2018-08-18T06:21:44.853Z,12.60
2018-08-18T06:22:44.838Z,12.69
2018-08-18T06:23:44.854Z,12.62
2018-08-18T06:24:44.827Z,12.75
2018-08-18T06:25:44.803Z,12.88
2018-08-18T06:26:44.798Z,12.89
2018-08-18T06:27:44.786Z,13.03
2018-08-18T06:28:44.793Z,12.92
2018-08-18T06:29:44.769Z,13.12
2018-08-18T06:30:44.754Z,13.02
2018-08-18T06:31:44.738Z,13.21
2018-08-18T06:32:44.732Z,13.27
2018-08-18T06:33:44.733Z,13.37
2018-08-18T06:34:44.863Z,13.41
2018-08-18T06:35:44.693Z,13.41
2018-08-18T06:36:44.702Z,13.46
2018-08-18T06:37:44.662Z,13.51
2018-08-18T06:38:44.677Z,13.52
2018-08-18T06:39:44.640Z,13.62
2018-08-18T06:40:44.635Z,13.76
2018-08-18T06:41:44.753Z,13.81
2018-08-18T06:42:44.654Z,13.89
2018-08-18T06:43:44.624Z,13.87
2018-08-18T06:44:44.589Z,13.95
2018-08-18T06:45:44.567Z,14.14
2018-08-18T06:46:44.559Z,14.24
2018-08-18T06:47:44.550Z,14.35
2018-08-18T06:48:44.574Z,14.37
2018-08-18T06:49:44.524Z,14.46
2018-08-18T06:50:44.510Z,14.52
2018-08-18T06:51:44.507Z,14.50
2018-08-18T06:52:44.486Z,14.52
2018-08-18T06:53:44.485Z,14.71
2018-08-18T06:54:44.574Z,14.74
2018-08-18T06:55:44.460Z,14.93
2018-08-18T06:56:44.444Z,15.15
2018-08-18T06:57:44.434Z,15.17
2018-08-18T06:58:44.424Z,15.26
2018-08-18T06:59:44.445Z,15.39
2018-08-18T07:00:44.394Z,15.49
2018-08-18T07:01:44.392Z,15.45
2018-08-18T07:02:44.370Z,15.64
2018-08-18T07:03:44.367Z,15.74
2018-08-18T07:04:44.351Z,15.82
2018-08-18T07:05:44.393Z,15.96
2018-08-18T07:06:44.326Z,16.11
2018-08-18T07:07:44.318Z,16.12
2018-08-18T07:08:44.308Z,16.16
2018-08-18T07:09:44.288Z,16.07
2018-08-18T07:10:44.307Z,16.18
2018-08-18T07:11:44.265Z,16.33
2018-08-18T07:12:44.259Z,16.38
2018-08-18T07:13:44.244Z,16.34
2018-08-18T07:14:44.233Z,16.48
2018-08-18T07:15:44.246Z,16.62
2018-08-18T07:16:44.210Z,16.86
2018-08-18T07:17:44.201Z,16.90
2018-08-18T07:18:44.192Z,17.08
2018-08-18T07:19:44.173Z,17.07
2018-08-18T07:20:44.199Z,17.22
2018-08-18T07:21:44.153Z,17.40
2018-08-18T07:22:44.138Z,17.28
2018-08-18T07:23:44.136Z,17.35
2018-08-18T07:24:44.123Z,17.40
2018-08-18T07:25:44.105Z,17.46
2018-08-18T07:26:44.119Z,17.40
2018-08-18T07:27:44.084Z,17.64
2018-08-18T07:28:44.169Z,17.81
2018-08-18T07:29:44.055Z,17.87
2018-08-18T07:30:44.056Z,17.89
2018-08-18T07:31:44.065Z,17.85
2018-08-18T07:32:44.125Z,17.87
2018-08-18T07:33:44.011Z,17.89
2018-08-18T07:34:43.997Z,17.87
2018-08-18T07:35:43.997Z,17.97
2018-08-18T07:36:44.001Z,18.25
2018-08-18T07:37:43.967Z,18.17
2018-08-18T07:38:43.961Z,18.40
2018-08-18T07:39:44.364Z,18.43
2018-08-18T07:40:44.366Z,18.61
2018-08-18T07:41:44.011Z,18.82
2018-08-18T07:42:44.189Z,18.95
2018-08-18T07:43:43.894Z,19.15
2018-08-18T07:44:43.887Z,19.20
2018-08-18T07:45:43.875Z,19.25
2018-08-18T07:46:43.887Z,19.29
2018-08-18T07:47:43.879Z,19.36
2018-08-18T07:48:43.845Z,19.32
2018-08-18T07:49:43.824Z,19.47
2018-08-18T07:50:43.826Z,19.47
2018-08-18T07:51:43.824Z,19.53
2018-08-18T07:52:44.448Z,19.57
2018-08-18T07:53:43.814Z,19.48
2018-08-18T07:54:44.443Z,19.58
2018-08-18T07:55:43.757Z,19.79
2018-08-18T07:56:43.766Z,19.75
2018-08-18T07:57:43.737Z,19.84
2018-08-18T07:58:43.739Z,19.97
2018-08-18T07:59:43.737Z,19.98
2018-08-18T08:00:43.962Z,20.15
2018-08-18T08:01:43.719Z,20.20
2018-08-18T08:02:43.732Z,20.31
2018-08-18T08:03:43.662Z,20.34
2018-08-18T08:04:43.685Z,20.42
2018-08-18T08:05:43.888Z,20.46
2018-08-18T08:06:43.662Z,20.39
2018-08-18T08:07:43.644Z,20.46
2018-08-18T08:08:43.617Z,20.50
2018-08-18T08:09:44.164Z,20.59
2018-08-18T08:10:43.596Z,20.62
2018-08-18T08:11:43.575Z,20.62
2018-08-18T08:12:43.774Z,20.65
2018-08-18T08:13:43.562Z,20.56
2018-08-18T08:14:43.549Z,20.61
2018-08-18T08:15:43.531Z,20.65
2018-08-18T08:16:43.519Z,20.62
2018-08-18T08:17:43.538Z,20.79
2018-08-18T08:18:44.552Z,20.81
2018-08-18T08:19:43.512Z,20.80
2018-08-18T08:20:43.748Z,21.11
2018-08-18T08:21:43.468Z,21.11
2018-08-18T08:22:43.453Z,21.13
2018-08-18T08:23:43.469Z,21.38
2018-08-18T08:24:43.434Z,21.48
2018-08-18T08:25:43.419Z,21.56
2018-08-18T08:26:43.411Z,21.61
2018-08-18T08:27:43.397Z,21.74
2018-08-18T08:28:43.412Z,21.74
2018-08-18T08:29:43.373Z,21.99
2018-08-18T08:30:43.367Z,21.98
2018-08-18T08:31:43.359Z,22.17
2018-08-18T08:32:44.040Z,22.20
2018-08-18T08:33:43.366Z,22.37
2018-08-18T08:34:43.319Z,22.44
2018-08-18T08:35:43.311Z,22.31
2018-08-18T08:36:43.308Z,22.34
2018-08-18T08:37:43.284Z,22.43
2018-08-18T08:38:43.273Z,22.56
2018-08-18T08:39:43.294Z,22.60
2018-08-18T08:40:43.333Z,22.65
2018-08-18T08:41:43.256Z,22.69
2018-08-18T08:42:43.255Z,22.80
2018-08-18T08:43:43.247Z,22.78
2018-08-18T08:44:43.226Z,22.83
2018-08-18T08:45:43.200Z,22.84
2018-08-18T08:46:43.192Z,22.94
2018-08-18T08:47:43.212Z,22.86
2018-08-18T08:48:43.573Z,23.07
2018-08-18T08:49:43.826Z,23.07
2018-08-18T08:50:43.171Z,23.14
2018-08-18T08:51:43.153Z,23.24
2018-08-18T08:52:43.145Z,23.32
2018-08-18T08:53:43.121Z,23.40
2018-08-18T08:54:43.164Z,23.52
2018-08-18T08:55:43.086Z,23.52
2018-08-18T08:56:43.077Z,23.58
2018-08-18T08:57:43.066Z,23.64
2018-08-18T08:58:43.097Z,23.68
2018-08-18T08:59:43.110Z,23.61
2018-08-18T09:00:43.071Z,23.77
2018-08-18T09:01:43.059Z,23.72
2018-08-18T09:02:43.010Z,23.70
2018-08-18T09:03:43.039Z,23.70
2018-08-18T09:04:44.742Z,23.72
2018-08-18T09:05:43.002Z,23.83
2018-08-18T09:06:42.986Z,23.68
2018-08-18T09:07:43.087Z,23.76
2018-08-18T09:08:42.945Z,23.70
2018-08-18T09:09:45.516Z,23.86
2018-08-18T09:10:42.951Z,23.90
2018-08-18T09:11:42.922Z,23.92
2018-08-18T09:12:42.933Z,24.12
2018-08-18T09:13:42.899Z,24.22
2018-08-18T09:14:42.892Z,24.23
2018-08-18T09:15:42.903Z,24.22
2018-08-18T09:16:42.866Z,24.24
2018-08-18T09:17:42.857Z,24.22
2018-08-18T09:18:42.841Z,24.29
2018-08-18T09:19:42.828Z,24.38
2018-08-18T09:20:42.848Z,24.52
2018-08-18T09:21:42.822Z,24.54
2018-08-18T09:22:42.795Z,24.64
2018-08-18T09:23:42.794Z,24.57
2018-08-18T09:24:42.787Z,24.57
2018-08-18T09:25:42.794Z,24.63
2018-08-18T09:26:42.755Z,24.71
2018-08-18T09:27:42.747Z,24.77
2018-08-18T09:28:42.732Z,24.94
2018-08-18T09:29:42.731Z,24.92
2018-08-18T09:30:42.717Z,24.98
2018-08-18T09:31:42.726Z,25.10
2018-08-18T09:32:42.695Z,25.19
2018-08-18T09:33:42.684Z,25.15
2018-08-18T09:34:42.675Z,25.28
2018-08-18T09:35:42.668Z,25.30
2018-08-18T09:36:42.676Z,25.28
2018-08-18T09:37:42.640Z,25.38
2018-08-18T09:38:42.632Z,25.43
2018-08-18T09:39:42.626Z,25.64
2018-08-18T09:40:42.610Z,25.62
2018-08-18T09:41:42.636Z,25.65
2018-08-18T09:42:42.592Z,25.69
2018-08-18T09:43:42.578Z,25.77
2018-08-18T09:44:42.600Z,25.94
2018-08-18T09:45:42.601Z,26.05
2018-08-18T09:46:42.562Z,26.15
2018-08-18T09:47:42.602Z,26.35
2018-08-18T09:48:42.524Z,26.61
2018-08-18T09:49:42.517Z,26.67
2018-08-18T09:50:42.511Z,26.72
2018-08-18T09:51:42.496Z,26.77
2018-08-18T09:52:42.510Z,26.79
2018-08-18T09:53:42.479Z,26.74
2018-08-18T09:54:42.461Z,26.87
2018-08-18T09:55:42.460Z,26.95
2018-08-18T09:56:42.444Z,26.94
2018-08-18T09:57:42.469Z,26.86
2018-08-18T09:58:42.433Z,26.89
2018-08-18T09:59:42.412Z,26.80
2018-08-18T10:00:42.409Z,26.99
2018-08-18T10:01:42.389Z,26.84
2018-08-18T10:02:42.380Z,26.81
2018-08-18T10:03:42.399Z,26.68
2018-08-18T10:04:42.369Z,26.67
2018-08-18T10:05:42.349Z,26.64
2018-08-18T10:06:42.343Z,26.74
2018-08-18T10:07:42.330Z,26.76
2018-08-18T10:08:42.349Z,26.83
2018-08-18T10:09:42.312Z,26.91
2018-08-18T10:10:42.299Z,26.81
2018-08-18T10:11:42.297Z,26.83
2018-08-18T10:12:42.287Z,26.72
2018-08-18T10:13:42.291Z,26.67
2018-08-18T10:14:42.262Z,26.68
2018-08-18T10:15:42.253Z,26.67
2018-08-18T10:16:42.237Z,26.64
2018-08-18T10:17:42.234Z,26.50
2018-08-18T10:18:42.252Z,26.57
2018-08-18T10:19:42.206Z,26.55
2018-08-18T10:20:42.198Z,26.68
2018-08-18T10:21:42.184Z,26.69
2018-08-18T10:22:42.171Z,26.73
2018-08-18T10:23:42.163Z,26.91
2018-08-18T10:24:42.239Z,26.92
2018-08-18T10:25:42.140Z,26.99
2018-08-18T10:26:42.132Z,26.80
2018-08-18T10:27:42.125Z,26.92
2018-08-18T10:28:42.114Z,26.80
2018-08-18T10:29:42.125Z,26.96
2018-08-18T10:30:42.087Z,26.80
2018-08-18T10:31:42.085Z,26.94
2018-08-18T10:32:42.074Z,26.80
2018-08-18T10:33:42.055Z,26.68
2018-08-18T10:34:42.071Z,26.69
2018-08-18T10:35:42.039Z,26.65
2018-08-18T10:36:42.026Z,26.52
2018-08-18T10:37:42.020Z,26.69
2018-08-18T10:38:42.004Z,26.58
2018-08-18T10:39:42.029Z,26.61
2018-08-18T10:40:41.981Z,26.44
2018-08-18T10:41:41.977Z,26.32
2018-08-18T10:42:41.958Z,26.17
2018-08-18T10:43:41.955Z,26.12
2018-08-18T10:44:41.939Z,26.04
2018-08-18T10:45:41.951Z,25.68
2018-08-18T10:46:41.914Z,25.54
2018-08-18T10:47:41.907Z,25.49
2018-08-18T10:48:41.943Z,25.49
2018-08-18T10:49:41.916Z,25.49
2018-08-18T10:50:41.892Z,25.42
2018-08-18T10:51:41.956Z,25.44
2018-08-18T10:52:41.854Z,25.43
2018-08-18T10:53:41.840Z,25.31
2018-08-18T10:54:41.892Z,25.31
2018-08-18T10:55:41.846Z,25.20
2018-08-18T10:56:41.807Z,25.19
2018-08-18T10:57:41.815Z,25.32
2018-08-18T10:58:41.786Z,25.25
2018-08-18T10:59:41.765Z,25.12
2018-08-18T11:00:41.753Z,25.09
2018-08-18T11:01:41.774Z,25.07
2018-08-18T11:02:41.737Z,25.00
2018-08-18T11:03:41.721Z,24.95
2018-08-18T11:04:41.716Z,24.95
2018-08-18T11:05:41.696Z,25.00
2018-08-18T11:06:41.710Z,24.97
2018-08-18T11:07:41.684Z,24.97
2018-08-18T11:08:41.671Z,24.91
2018-08-18T11:09:41.656Z,24.98
2018-08-18T11:10:41.648Z,25.00
2018-08-18T11:11:41.658Z,24.94
2018-08-18T11:12:41.621Z,24.95
2018-08-18T11:13:41.608Z,25.02
2018-08-18T11:14:41.775Z,25.00
2018-08-18T11:15:41.590Z,25.10
2018-08-18T11:16:41.578Z,25.16
2018-08-18T11:17:41.589Z,25.20
2018-08-18T11:18:41.557Z,25.32
2018-08-18T11:19:41.543Z,25.32
2018-08-18T11:20:41.537Z,25.42
2018-08-18T11:21:41.565Z,25.34
2018-08-18T11:22:41.533Z,25.43
2018-08-18T11:23:41.499Z,25.37
2018-08-18T11:24:41.485Z,25.42
2018-08-18T11:25:41.472Z,25.42
2018-08-18T11:26:41.463Z,25.32
2018-08-18T11:27:41.448Z,25.52
2018-08-18T11:28:41.678Z,25.50
2018-08-18T11:29:41.425Z,25.37
2018-08-18T11:30:41.414Z,25.31
2018-08-18T11:31:41.406Z,25.34
2018-08-18T11:32:41.388Z,25.27
2018-08-18T11:33:41.411Z,25.31
2018-08-18T11:34:41.369Z,25.43
2018-08-18T11:35:41.364Z,25.37
2018-08-18T11:36:41.348Z,25.42
2018-08-18T11:37:41.338Z,25.39
2018-08-18T11:38:41.361Z,25.31
2018-08-18T11:39:41.318Z,25.39
2018-08-18T11:40:41.315Z,25.57
2018-08-18T11:41:41.393Z,25.64
2018-08-18T11:42:41.279Z,25.64
2018-08-18T11:43:41.269Z,25.61
2018-08-18T11:44:41.276Z,25.62
2018-08-18T11:45:41.252Z,25.61
2018-08-18T11:46:41.230Z,25.75
2018-08-18T11:47:41.228Z,25.61
2018-08-18T11:48:41.216Z,25.61
2018-08-18T11:49:41.218Z,25.67
2018-08-18T11:50:41.192Z,25.54
2018-08-18T11:51:41.177Z,25.56
2018-08-18T11:52:41.168Z,25.57
2018-08-18T11:53:41.152Z,25.53
2018-08-18T11:54:41.169Z,25.65
2018-08-18T11:55:41.133Z,25.57
2018-08-18T11:56:41.122Z,25.54
2018-08-18T11:57:41.109Z,25.49
2018-08-18T11:58:41.099Z,25.74
2018-08-18T11:59:41.111Z,25.79
2018-08-18T12:00:41.082Z,25.74
2018-08-18T12:01:41.058Z,25.82
2018-08-18T12:02:41.058Z,25.93
2018-08-18T12:03:41.036Z,25.82
2018-08-18T12:04:41.057Z,25.90
2018-08-18T12:05:41.018Z,25.84
2018-08-18T12:06:41.003Z,25.97
2018-08-18T12:07:41.000Z,26.06
2018-08-18T12:08:40.982Z,26.02
2018-08-18T12:09:41.007Z,26.17
2018-08-18T12:10:41.031Z,26.09
2018-08-18T12:11:40.945Z,26.09
2018-08-18T12:12:40.944Z,26.09
2018-08-18T12:13:40.925Z,26.24
2018-08-18T12:14:40.915Z,26.36
2018-08-18T12:15:40.933Z,26.40
2018-08-18T12:16:40.889Z,26.50
2018-08-18T12:17:40.880Z,26.64
2018-08-18T12:18:40.865Z,26.58
2018-08-18T12:19:40.890Z,26.65
2018-08-18T12:20:40.850Z,26.73
2018-08-18T12:21:40.838Z,26.86
2018-08-18T12:22:40.829Z,26.84
2018-08-18T12:23:40.868Z,26.79
2018-08-18T12:24:40.840Z,26.83
2018-08-18T12:25:40.868Z,26.99
2018-08-18T12:26:40.802Z,27.04
2018-08-18T12:27:40.801Z,27.05
2018-08-18T12:28:40.751Z,27.05
2018-08-18T12:29:40.777Z,27.14
2018-08-18T12:30:40.757Z,27.17
2018-08-18T12:31:40.725Z,27.17
2018-08-18T12:32:42.630Z,27.20
2018-08-18T12:33:40.699Z,27.04
2018-08-18T12:34:41.226Z,27.16
2018-08-18T12:35:40.778Z,27.01
2018-08-18T12:36:40.784Z,27.10
2018-08-18T12:37:40.682Z,27.13
2018-08-18T12:38:40.642Z,27.32
2018-08-18T12:39:44.573Z,27.29
2018-08-18T12:40:40.974Z,27.33
2018-08-18T12:41:40.600Z,27.35
2018-08-18T12:42:40.599Z,27.61
2018-08-18T12:43:40.579Z,27.77
2018-08-18T12:44:40.568Z,27.80
2018-08-18T12:45:40.560Z,27.89
2018-08-18T12:46:40.570Z,27.98
2018-08-18T12:47:40.532Z,28.03
2018-08-18T12:48:40.521Z,28.19
2018-08-18T12:49:40.603Z,28.19
2018-08-18T12:50:40.498Z,28.26
2018-08-18T12:51:40.528Z,28.26
2018-08-18T12:52:40.479Z,28.53